Time;durP1;ratioP1;P1;durP2;ratioP2;P2;SDS_P1;SDS_P2;PMS_P1;PMS_P2;Temp;Humidity;BMP_temperature;BMP_pressure;BME280_temperature;BME280_humidity;BME280_pressure;Samples;Min_cycle;Max_cycle;Signal;HPM_P1;HPM_P2
2022/11/20 00:00:49;;;;;;;7.57;4.43;;;13.90;81.30;;;;;;5012873;28;20421;-78
2022/11/20 00:03:15;;;;;;;7.93;4.63;;;13.90;81.20;;;;;;5013494;28;20034;-80
2022/11/20 00:05:40;;;;;;;8.25;4.85;;;13.90;81.20;;;;;;5012789;28;20057;-78
2022/11/20 00:08:06;;;;;;;8.57;4.28;;;13.90;81.30;;;;;;4995460;28;20030;-77
2022/11/20 00:10:31;;;;;;;7.65;5.10;;;13.90;81.50;;;;;;5012793;28;20109;-77
2022/11/20 00:13:00;;;;;;;6.88;4.22;;;13.80;81.50;;;;;;4995552;28;20116;-77
2022/11/20 00:15:26;;;;;;;9.02;4.40;;;13.80;81.60;;;;;;5013011;28;20022;-78
2022/11/20 00:17:51;;;;;;;6.68;4.30;;;13.80;81.60;;;;;;4995285;28;20034;-79
2022/11/20 00:20:17;;;;;;;6.55;4.20;;;13.80;81.70;;;;;;4995235;28;20049;-76
2022/11/20 00:22:42;;;;;;;8.02;4.60;;;13.80;81.70;;;;;;5012827;28;20120;-77
2022/11/20 00:25:08;;;;;;;7.65;4.60;;;13.80;81.80;;;;;;4995142;28;20116;-77
2022/11/20 00:27:34;;;;;;;8.23;4.95;;;13.80;81.80;;;;;;4995039;28;20049;-77
2022/11/20 00:29:59;;;;;;;7.93;4.40;;;13.70;81.80;;;;;;5012904;28;20022;-77
2022/11/20 00:32:25;;;;;;;7.72;4.93;;;13.70;81.80;;;;;;4994789;28;20390;-77
2022/11/20 00:34:50;;;;;;;8.75;4.82;;;13.70;81.80;;;;;;5012664;28;20441;-77
2022/11/20 00:37:16;;;;;;;8.55;4.70;;;13.70;81.70;;;;;;4995035;28;20029;-76
2022/11/20 00:39:41;;;;;;;7.30;4.60;;;13.70;81.60;;;;;;5012532;28;20080;-77
2022/11/20 00:42:07;;;;;;;7.68;4.40;;;13.70;81.70;;;;;;5012161;28;20026;-77
2022/11/20 00:44:32;;;;;;;8.57;5.30;;;13.70;81.70;;;;;;4994901;28;20033;-77
2022/11/20 00:46:58;;;;;;;7.55;4.50;;;13.70;81.80;;;;;;5012517;28;20022;-77
2022/11/20 00:49:23;;;;;;;7.07;4.60;;;13.70;81.70;;;;;;5012570;28;20029;-77
2022/11/20 00:51:49;;;;;;;7.43;4.70;;;13.70;81.70;;;;;;4994652;28;20375;-79
2022/11/20 00:54:14;;;;;;;8.13;4.72;;;13.70;81.70;;;;;;4994946;28;20037;-77
2022/11/20 00:56:40;;;;;;;8.05;4.40;;;13.70;81.70;;;;;;4994926;28;20029;-77
2022/11/20 00:59:06;;;;;;;7.45;4.57;;;13.70;81.60;;;;;;5012394;28;20037;-78
2022/11/20 01:01:31;;;;;;;7.40;4.55;;;13.70;81.70;;;;;;5012442;28;20029;-79
2022/11/20 01:03:59;;;;;;;6.97;4.45;;;13.70;81.80;;;;;;5012436;28;20026;-79
2022/11/20 01:06:34;;;;;;;6.80;4.60;;;13.70;81.70;;;;;;4994915;28;20032;-78
2022/11/20 01:09:09;;;;;;;7.93;5.00;;;13.70;81.40;;;;;;5012322;28;20540;-78
2022/11/20 01:11:37;;;;;;;7.43;4.93;;;13.70;81.40;;;;;;5011986;28;20497;-77
2022/11/20 01:14:05;;;;;;;8.10;4.60;;;13.70;81.30;;;;;;5012326;28;20062;-77
2022/11/20 01:16:33;;;;;;;7.15;4.45;;;13.70;81.20;;;;;;4995604;28;20030;-79
2022/11/20 01:19:01;;;;;;;7.53;4.55;;;13.70;81.00;;;;;;4998580;28;20026;-78
2022/11/20 01:21:33;;;;;;;7.57;4.60;;;13.70;80.90;;;;;;4998325;28;20063;-78
2022/11/20 01:23:59;;;;;;;8.23;5.03;;;13.70;80.90;;;;;;4998610;28;20371;-78
2022/11/20 01:26:27;;;;;;;6.40;4.47;;;13.70;80.80;;;;;;5016126;28;20030;-80
2022/11/20 01:28:54;;;;;;;7.28;4.93;;;13.70;80.90;;;;;;4998266;28;20402;-78
2022/11/20 01:31:22;;;;;;;8.15;4.97;;;13.70;81.00;;;;;;5015491;28;20026;-79
2022/11/20 01:33:50;;;;;;;8.05;5.07;;;13.70;81.20;;;;;;4998221;28;20092;-77
2022/11/20 01:36:17;;;;;;;7.80;4.85;;;13.60;81.30;;;;;;5015946;28;20026;-78
2022/11/20 01:38:43;;;;;;;7.70;4.93;;;13.60;81.20;;;;;;5015659;28;20529;-78
2022/11/20 01:41:10;;;;;;;8.88;4.90;;;13.60;81.30;;;;;;5015314;28;20053;-77
2022/11/20 01:43:36;;;;;;;7.18;4.85;;;13.60;81.40;;;;;;4998306;28;20022;-77
2022/11/20 01:46:16;;;;;;;7.30;4.68;;;13.60;81.50;;;;;;5015754;28;20029;-77
2022/11/20 01:49:03;;;;;;;7.47;4.85;;;13.60;81.50;;;;;;5015697;28;20054;-77
2022/11/20 01:51:53;;;;;;;8.35;5.30;;;13.60;81.50;;;;;;4997804;28;20034;-77
2022/11/20 01:54:23;;;;;;;6.82;4.53;;;13.60;81.50;;;;;;4997265;28;20098;-78
2022/11/20 01:56:53;;;;;;;7.70;4.72;;;13.60;81.50;;;;;;5000499;28;20069;-79
2022/11/20 01:59:20;;;;;;;7.47;4.65;;;13.60;81.50;;;;;;4995980;28;20034;-79
2022/11/20 02:01:46;;;;;;;8.50;4.95;;;13.60;81.50;;;;;;4978013;28;20065;-77
2022/11/20 02:04:13;;;;;;;7.47;5.00;;;13.60;81.50;;;;;;4978190;28;20031;-77
2022/11/20 02:06:44;;;;;;;7.82;4.95;;;13.50;81.30;;;;;;4978231;28;20495;-79
2022/11/20 02:09:09;;;;;;;8.00;4.85;;;13.50;81.20;;;;;;4996015;28;20026;-78
2022/11/20 02:11:35;;;;;;;7.72;5.20;;;13.50;81.40;;;;;;4977662;28;20030;-77
2022/11/20 02:14:00;;;;;;;7.40;4.75;;;13.50;81.20;;;;;;4996188;28;20019;-79
2022/11/20 02:16:30;;;;;;;8.05;4.93;;;13.50;81.30;;;;;;4995557;28;20022;-74
2022/11/20 02:18:59;;;;;;;7.18;4.70;;;13.50;81.30;;;;;;4978052;28;20138;-78
2022/11/20 02:21:47;;;;;;;7.68;5.20;;;13.50;81.30;;;;;;4994809;28;20027;-77
2022/11/20 02:24:15;;;;;;;7.93;5.07;;;13.50;81.20;;;;;;4995353;28;20026;-78
2022/11/20 02:26:50;;;;;;;7.53;5.07;;;13.50;81.10;;;;;;4977620;28;20029;-79
2022/11/20 02:29:22;;;;;;;8.52;5.15;;;13.50;81.20;;;;;;4979452;28;20026;-78
2022/11/20 02:31:48;;;;;;;7.30;4.63;;;13.50;81.40;;;;;;4982825;28;20026;-79
2022/11/20 02:34:13;;;;;;;8.07;5.05;;;13.50;81.10;;;;;;4993988;28;20065;-78
2022/11/20 02:36:42;;;;;;;7.53;4.65;;;13.50;81.10;;;;;;5014793;28;20502;-79
2022/11/20 02:39:09;;;;;;;7.35;4.95;;;13.50;81.00;;;;;;5008910;28;20089;-78
2022/11/20 02:41:36;;;;;;;7.38;4.57;;;13.60;81.00;;;;;;4977566;28;20022;-78
2022/11/20 02:44:03;;;;;;;7.05;4.47;;;13.60;81.00;;;;;;4995033;28;20032;-79
2022/11/20 02:46:29;;;;;;;7.78;5.00;;;13.60;80.80;;;;;;5013816;28;20072;-77
2022/11/20 02:48:55;;;;;;;7.03;4.70;;;13.60;80.70;;;;;;5014523;28;20018;-78
2022/11/20 02:51:21;;;;;;;6.97;4.75;;;13.60;80.80;;;;;;5014250;28;20018;-77
2022/11/20 02:53:47;;;;;;;7.15;4.80;;;13.60;80.90;;;;;;5014522;28;20033;-78
2022/11/20 02:56:13;;;;;;;7.20;4.70;;;13.50;80.90;;;;;;5014198;28;20108;-77
2022/11/20 02:58:38;;;;;;;8.00;5.25;;;13.60;81.00;;;;;;5014351;28;20026;-77
2022/11/20 03:01:04;;;;;;;7.40;4.72;;;13.50;81.00;;;;;;4996264;28;20405;-77
2022/11/20 03:03:29;;;;;;;7.40;5.00;;;13.50;81.10;;;;;;4996786;28;20026;-77
2022/11/20 03:05:55;;;;;;;8.02;4.95;;;13.50;81.20;;;;;;4988905;28;20026;-77
2022/11/20 03:08:20;;;;;;;7.60;4.63;;;13.50;81.20;;;;;;4977092;28;20037;-77
2022/11/20 03:10:46;;;;;;;7.25;4.65;;;13.50;81.20;;;;;;4994452;28;20081;-78
2022/11/20 03:13:11;;;;;;;7.53;5.22;;;13.40;81.20;;;;;;4994461;28;20069;-78
2022/11/20 03:15:37;;;;;;;7.45;4.75;;;13.40;81.10;;;;;;4994500;28;20034;-79
2022/11/20 03:18:03;;;;;;;8.07;5.25;;;13.40;81.20;;;;;;4977353;28;20087;-78
2022/11/20 03:20:29;;;;;;;7.35;5.22;;;13.40;81.10;;;;;;4995664;28;20026;-76
2022/11/20 03:22:54;;;;;;;7.40;5.00;;;13.40;81.00;;;;;;4996350;28;20036;-79
2022/11/20 03:25:20;;;;;;;7.38;5.30;;;13.40;81.00;;;;;;4996175;28;20117;-79
2022/11/20 03:27:46;;;;;;;7.38;4.85;;;13.40;81.00;;;;;;5013827;28;20028;-78
2022/11/20 03:30:12;;;;;;;7.82;5.30;;;13.40;80.90;;;;;;5013632;28;20025;-77
2022/11/20 03:32:37;;;;;;;8.23;5.55;;;13.40;80.90;;;;;;4995993;28;20026;-78
2022/11/20 03:35:03;;;;;;;8.10;5.45;;;13.40;80.80;;;;;;5005379;28;20483;-78
2022/11/20 03:37:29;;;;;;;7.75;5.00;;;13.40;81.40;;;;;;4992969;28;20037;-79
2022/11/20 03:39:54;;;;;;;7.30;4.93;;;13.40;80.90;;;;;;4996540;28;20390;-77
2022/11/20 03:45:04;;;;;;;7.53;4.70;;;13.40;80.70;;;;;;5013469;28;20076;-77
2022/11/20 03:47:30;;;;;;;7.88;5.63;;;13.40;80.70;;;;;;4993979;28;20022;-78
2022/11/20 03:49:55;;;;;;;7.57;5.18;;;13.40;80.60;;;;;;4993953;28;20081;-79
2022/11/20 03:52:21;;;;;;;7.93;5.20;;;13.40;80.70;;;;;;4976103;28;20021;-79
2022/11/20 03:54:46;;;;;;;7.82;4.78;;;13.40;80.90;;;;;;4993774;28;20034;-78
2022/11/20 03:57:12;;;;;;;7.85;5.32;;;13.30;81.00;;;;;;4993802;28;20034;-77
2022/11/20 03:59:37;;;;;;;7.55;4.88;;;13.40;81.10;;;;;;4976213;28;20398;-77
2022/11/20 04:02:03;;;;;;;6.85;4.40;;;13.40;81.10;;;;;;4993303;28;20042;-78
2022/11/20 04:04:28;;;;;;;7.43;5.20;;;13.40;80.90;;;;;;4993489;28;20027;-77
2022/11/20 04:06:54;;;;;;;8.55;5.38;;;13.40;80.90;;;;;;4976197;28;20022;-78
2022/11/20 04:09:19;;;;;;;7.90;5.13;;;13.50;80.70;;;;;;4993800;28;20054;-77
2022/11/20 04:11:45;;;;;;;7.88;5.35;;;13.50;80.50;;;;;;4975467;28;20052;-78
2022/11/20 04:14:15;;;;;;;8.05;5.30;;;13.50;80.60;;;;;;4993284;28;20027;-78
2022/11/20 04:16:41;;;;;;;7.68;5.35;;;13.50;80.60;;;;;;4993382;28;20033;-77
2022/11/20 04:19:12;;;;;;;7.45;5.05;;;13.50;80.70;;;;;;4993265;28;20073;-77
2022/11/20 04:21:37;;;;;;;7.80;5.00;;;13.40;80.70;;;;;;4993110;28;20022;-78
2022/11/20 04:24:03;;;;;;;7.03;5.00;;;13.40;80.70;;;;;;4992378;28;20405;-77
2022/11/20 04:26:30;;;;;;;8.45;5.10;;;13.40;80.80;;;;;;4975828;28;20025;-79
2022/11/20 04:28:57;;;;;;;7.60;5.18;;;13.40;80.90;;;;;;4975819;28;20088;-77
2022/11/20 04:31:27;;;;;;;7.57;5.18;;;13.40;80.80;;;;;;5003112;28;20347;-77
2022/11/20 04:33:53;;;;;;;6.78;4.80;;;13.40;80.90;;;;;;5013326;28;20036;-77
2022/11/20 04:36:21;;;;;;;8.27;4.88;;;13.30;80.90;;;;;;5012711;28;20034;-77
2022/11/20 04:38:51;;;;;;;7.70;5.50;;;13.30;80.90;;;;;;5012710;28;20034;-77
2022/11/20 04:41:19;;;;;;;7.70;5.53;;;13.30;80.90;;;;;;5012260;28;20117;-79
2022/11/20 04:43:50;;;;;;;7.45;5.03;;;13.30;80.70;;;;;;4995115;28;20057;-78
2022/11/20 04:46:16;;;;;;;7.47;5.50;;;13.30;80.70;;;;;;4985806;28;20023;-79
2022/11/20 04:48:42;;;;;;;7.85;5.20;;;13.30;80.60;;;;;;4993033;28;20027;-78
2022/11/20 04:51:07;;;;;;;8.60;5.70;;;13.30;80.60;;;;;;4992522;28;20029;-79
2022/11/20 04:53:33;;;;;;;7.93;5.45;;;13.30;80.50;;;;;;4992912;28;20101;-79
2022/11/20 04:56:04;;;;;;;8.02;5.18;;;13.30;80.60;;;;;;4992942;28;20105;-79
2022/11/20 04:58:30;;;;;;;7.60;5.40;;;13.30;80.60;;;;;;5003978;28;20022;-78
2022/11/20 05:01:04;;;;;;;7.53;5.10;;;13.30;80.50;;;;;;5004909;28;20033;-78
2022/11/20 05:03:30;;;;;;;7.63;5.68;;;13.30;80.50;;;;;;5009744;28;20110;-78
2022/11/20 05:05:55;;;;;;;7.97;5.43;;;13.30;80.60;;;;;;5012323;28;20030;-78
2022/11/20 05:08:21;;;;;;;7.43;5.03;;;13.30;80.60;;;;;;4994829;28;20025;-77
2022/11/20 05:10:46;;;;;;;7.53;5.53;;;13.30;80.50;;;;;;4994560;28;20029;-77
2022/11/20 05:13:12;;;;;;;7.28;5.30;;;13.30;80.60;;;;;;4992732;28;20030;-77
2022/11/20 05:15:37;;;;;;;7.38;5.15;;;13.30;80.60;;;;;;5001889;28;20026;-79
2022/11/20 05:18:03;;;;;;;7.70;4.95;;;13.30;80.60;;;;;;5012544;28;20030;-77
2022/11/20 05:20:29;;;;;;;7.60;5.32;;;13.30;80.50;;;;;;4983930;28;20026;-77
2022/11/20 05:22:57;;;;;;;7.28;4.82;;;13.30;80.70;;;;;;4991399;28;20130;-76
2022/11/20 05:25:23;;;;;;;7.22;5.05;;;13.30;81.00;;;;;;4975022;28;20129;-78
2022/11/20 05:27:48;;;;;;;7.95;5.13;;;13.30;80.80;;;;;;4975200;28;20069;-77
2022/11/20 05:30:14;;;;;;;7.00;5.00;;;13.30;80.70;;;;;;4994187;28;20027;-76
2022/11/20 05:32:40;;;;;;;7.28;5.03;;;13.30;80.50;;;;;;5012132;28;20022;-78
2022/11/20 05:35:06;;;;;;;6.97;5.05;;;13.30;80.40;;;;;;4989517;28;20022;-78
2022/11/20 05:37:31;;;;;;;7.28;4.95;;;13.30;80.30;;;;;;4975148;28;20172;-78
2022/11/20 05:39:57;;;;;;;6.85;4.65;;;13.30;80.30;;;;;;4997500;28;20162;-78
2022/11/20 05:42:31;;;;;;;7.25;4.97;;;13.30;80.30;;;;;;5017295;28;20034;-77
2022/11/20 05:45:01;;;;;;;8.32;5.20;;;13.30;80.40;;;;;;5009912;28;20435;-78
2022/11/20 05:47:30;;;;;;;6.88;4.82;;;13.30;80.40;;;;;;4975400;28;20394;-77
2022/11/20 05:49:56;;;;;;;7.80;5.18;;;13.30;80.40;;;;;;4976968;28;20029;-80
2022/11/20 05:52:21;;;;;;;7.53;5.32;;;13.30;80.50;;;;;;4992119;28;20027;-78
2022/11/20 05:54:47;;;;;;;7.22;4.95;;;13.20;80.50;;;;;;4974972;28;20081;-78
2022/11/20 05:57:12;;;;;;;7.72;5.20;;;13.20;80.40;;;;;;4992346;28;20049;-78
2022/11/20 05:59:38;;;;;;;7.78;5.45;;;13.20;80.40;;;;;;4994946;28;20030;-80
2022/11/20 06:02:03;;;;;;;7.70;5.43;;;13.20;80.50;;;;;;4982655;28;20069;-81
2022/11/20 06:04:29;;;;;;;8.15;5.47;;;13.20;80.40;;;;;;4986285;28;20060;-80
2022/11/20 06:06:54;;;;;;;7.47;5.30;;;13.20;80.30;;;;;;4980969;28;20030;-77
2022/11/20 06:09:20;;;;;;;7.75;5.30;;;13.20;80.40;;;;;;4995755;28;20026;-77
2022/11/20 06:11:45;;;;;;;7.38;5.25;;;13.20;80.40;;;;;;5005293;28;20106;-78
2022/11/20 06:14:11;;;;;;;7.97;5.53;;;13.20;80.30;;;;;;4997652;28;20172;-77
2022/11/20 06:16:36;;;;;;;7.75;5.45;;;13.20;80.30;;;;;;4998576;28;20158;-76
2022/11/20 06:19:02;;;;;;;7.40;5.22;;;13.20;80.20;;;;;;4996024;28;20087;-76
2022/11/20 06:21:28;;;;;;;7.93;5.50;;;13.20;80.20;;;;;;4974206;28;20030;-77
2022/11/20 06:23:53;;;;;;;7.53;5.30;;;13.20;80.30;;;;;;4993675;28;20023;-77
2022/11/20 06:26:22;;;;;;;7.40;5.15;;;13.20;80.30;;;;;;4995273;28;20022;-77
2022/11/20 06:28:48;;;;;;;8.20;5.40;;;13.20;80.20;;;;;;4994907;28;20029;-76
2022/11/20 06:31:15;;;;;;;7.28;5.18;;;13.20;80.20;;;;;;4997409;28;20029;-75
2022/11/20 06:33:42;;;;;;;7.75;5.20;;;13.20;80.20;;;;;;5014700;28;20145;-76
2022/11/20 06:36:09;;;;;;;8.52;5.18;;;13.20;80.20;;;;;;5014550;28;20026;-76
2022/11/20 06:38:34;;;;;;;7.47;5.00;;;13.20;80.20;;;;;;5006278;28;20038;-74
2022/11/20 06:41:00;;;;;;;8.00;5.50;;;13.20;80.20;;;;;;4993499;28;20033;-74
2022/11/20 06:43:28;;;;;;;7.57;5.32;;;13.20;80.10;;;;;;4993415;28;20037;-75
2022/11/20 06:45:57;;;;;;;7.35;5.40;;;13.10;80.00;;;;;;4975867;28;20027;-74
2022/11/20 06:48:23;;;;;;;7.78;5.35;;;13.20;80.00;;;;;;4992755;28;20118;-74
2022/11/20 06:50:49;;;;;;;7.80;5.05;;;13.10;80.20;;;;;;4975984;28;20030;-77
2022/11/20 06:53:15;;;;;;;8.60;6.18;;;13.20;80.30;;;;;;4976424;28;20487;-75
2022/11/20 06:55:45;;;;;;;8.10;5.47;;;13.20;79.50;;;;;;4976476;28;20035;-75
2022/11/20 06:58:11;;;;;;;8.20;5.65;;;13.20;79.80;;;;;;4994176;28;20064;-74
2022/11/20 07:00:37;;;;;;;8.88;6.00;;;13.20;79.50;;;;;;4993630;28;20030;-73
2022/11/20 07:03:04;;;;;;;11.40;6.38;;;13.20;79.20;;;;;;4976648;28;20102;-75
2022/11/20 07:05:29;;;;;;;8.98;6.30;;;13.20;79.00;;;;;;4993815;28;20058;-74
2022/11/20 07:07:58;;;;;;;8.07;6.00;;;13.20;79.00;;;;;;4991431;28;20108;-74
2022/11/20 07:10:24;;;;;;;9.43;6.00;;;13.20;79.00;;;;;;4979342;28;20022;-73
2022/11/20 07:12:51;;;;;;;10.73;6.43;;;13.20;79.20;;;;;;5010454;28;20112;-73
2022/11/20 07:15:17;;;;;;;8.77;6.20;;;13.20;79.30;;;;;;4974378;28;20022;-74
2022/11/20 07:17:43;;;;;;;9.75;6.15;;;13.20;79.40;;;;;;4993641;28;20070;-75
2022/11/20 07:20:09;;;;;;;8.82;6.20;;;13.20;79.30;;;;;;4975199;28;20054;-74
2022/11/20 07:22:35;;;;;;;7.90;5.70;;;13.20;79.40;;;;;;4992464;28;20033;-74
2022/11/20 07:25:01;;;;;;;7.75;5.75;;;13.20;79.50;;;;;;4975134;28;20033;-74
2022/11/20 07:27:27;;;;;;;8.48;6.05;;;13.20;79.40;;;;;;4974870;28;20018;-74
2022/11/20 07:29:53;;;;;;;8.43;6.05;;;13.20;79.50;;;;;;4995081;28;20030;-74
2022/11/20 07:32:18;;;;;;;14.25;6.35;;;13.20;79.50;;;;;;5003868;28;20060;-77
2022/11/20 07:34:44;;;;;;;8.10;5.75;;;13.20;79.40;;;;;;4976808;28;20035;-78
2022/11/20 07:37:10;;;;;;;10.57;5.93;;;13.20;79.40;;;;;;4994446;28;20102;-80
2022/11/20 07:39:35;;;;;;;9.13;5.95;;;13.20;79.30;;;;;;4976892;28;20026;-77
2022/11/20 07:42:01;;;;;;;8.48;5.85;;;13.20;79.20;;;;;;4976935;28;20034;-75
2022/11/20 07:44:26;;;;;;;8.73;5.97;;;13.20;79.30;;;;;;4993872;28;20033;-75
2022/11/20 07:46:52;;;;;;;7.80;5.90;;;13.20;79.90;;;;;;4977300;28;20029;-73
2022/11/20 07:49:17;;;;;;;8.32;6.00;;;13.20;79.30;;;;;;4992972;28;20030;-78
2022/11/20 07:51:43;;;;;;;7.85;5.78;;;13.20;79.30;;;;;;4997572;28;20026;-76
2022/11/20 07:54:08;;;;;;;9.50;5.90;;;13.20;79.30;;;;;;4981948;28;20057;-74
2022/11/20 07:56:34;;;;;;;10.85;6.13;;;13.20;79.40;;;;;;4986626;28;20069;-73
2022/11/20 07:58:59;;;;;;;8.95;5.78;;;13.20;79.30;;;;;;4994669;28;20030;-77
2022/11/20 08:01:25;;;;;;;8.68;6.18;;;13.20;79.30;;;;;;4994413;28;20556;-76
2022/11/20 08:03:50;;;;;;;7.93;5.80;;;13.20;79.40;;;;;;5010503;28;20101;-73
2022/11/20 08:06:18;;;;;;;8.70;6.00;;;13.20;79.50;;;;;;5011531;28;20030;-72
2022/11/20 08:08:44;;;;;;;8.13;5.60;;;13.20;79.40;;;;;;4991480;28;20029;-73
2022/11/20 08:14:12;;;;;;;8.95;5.75;;;13.30;79.30;;;;;;4993538;28;20088;-73
2022/11/20 08:16:49;;;;;;;7.95;5.70;;;13.40;79.30;;;;;;4993088;28;20027;-77
2022/11/20 08:19:16;;;;;;;8.38;5.93;;;13.40;79.20;;;;;;4993604;28;20101;-76
2022/11/20 08:21:42;;;;;;;7.97;5.95;;;13.40;79.10;;;;;;4993141;28;20029;-76
2022/11/20 08:24:08;;;;;;;7.93;5.72;;;13.40;78.70;;;;;;4993216;28;20023;-77
2022/11/20 08:26:36;;;;;;;7.95;5.72;;;13.40;78.80;;;;;;5007548;28;20038;-76
2022/11/20 08:29:02;;;;;;;7.68;5.43;;;13.40;78.90;;;;;;4995201;28;20030;-77
2022/11/20 08:31:28;;;;;;;8.23;5.90;;;13.40;79.00;;;;;;5012311;28;20100;-76
2022/11/20 08:33:54;;;;;;;7.55;5.63;;;13.40;79.00;;;;;;5012601;28;20055;-77
2022/11/20 08:36:21;;;;;;;8.10;5.57;;;13.30;79.00;;;;;;5009004;28;20049;-76
2022/11/20 08:38:50;;;;;;;8.23;5.80;;;13.30;79.10;;;;;;4992911;28;20482;-76
2022/11/20 08:41:26;;;;;;;9.05;6.47;;;13.30;79.10;;;;;;4975287;28;20194;-76
2022/11/20 08:44:03;;;;;;;7.80;5.60;;;13.30;79.20;;;;;;4992972;28;20572;-75
2022/11/20 08:46:36;;;;;;;8.52;5.78;;;13.30;79.10;;;;;;4975280;28;20512;-76
2022/11/20 08:49:01;;;;;;;7.72;5.43;;;13.30;79.30;;;;;;4981514;28;20022;-76
2022/11/20 08:51:27;;;;;;;8.05;5.70;;;13.30;79.40;;;;;;4994473;28;20021;-75
2022/11/20 08:53:52;;;;;;;8.32;5.70;;;13.30;79.40;;;;;;4991875;28;20018;-75
2022/11/20 08:56:18;;;;;;;7.93;5.60;;;13.20;79.50;;;;;;5003213;28;20084;-76
2022/11/20 08:58:43;;;;;;;8.77;5.85;;;13.20;79.60;;;;;;4991941;28;20026;-76
2022/11/20 09:01:10;;;;;;;8.32;5.65;;;13.20;79.70;;;;;;4975397;28;20037;-76
2022/11/20 09:03:35;;;;;;;8.15;5.78;;;13.20;79.60;;;;;;4992392;28;20030;-76
2022/11/20 09:06:03;;;;;;;8.35;5.68;;;13.20;79.60;;;;;;4975006;28;20446;-76
2022/11/20 09:08:29;;;;;;;8.30;5.72;;;13.20;79.60;;;;;;4995176;28;20081;-76
2022/11/20 09:10:56;;;;;;;7.93;5.57;;;13.20;79.70;;;;;;4994160;28;20026;-77
2022/11/20 09:13:23;;;;;;;8.48;6.00;;;13.20;79.70;;;;;;5007211;28;20022;-76
2022/11/20 09:15:56;;;;;;;7.82;5.60;;;13.20;79.80;;;;;;4978951;28;20198;-76
2022/11/20 09:18:22;;;;;;;8.70;6.03;;;13.10;79.80;;;;;;4994426;28;20026;-77
2022/11/20 09:20:48;;;;;;;7.93;5.70;;;13.20;79.80;;;;;;4998656;28;20387;-78
2022/11/20 09:23:14;;;;;;;7.68;5.57;;;13.10;79.80;;;;;;4975565;28;20561;-76
2022/11/20 09:25:39;;;;;;;8.25;5.65;;;13.10;79.90;;;;;;4979438;28;20038;-77
2022/11/20 09:28:05;;;;;;;8.25;6.00;;;13.20;79.80;;;;;;4975300;28;20466;-77
2022/11/20 09:30:31;;;;;;;8.60;5.88;;;13.10;79.80;;;;;;4978114;28;20018;-77
2022/11/20 09:32:56;;;;;;;8.15;5.57;;;13.10;79.80;;;;;;4994918;28;20026;-77
2022/11/20 09:35:22;;;;;;;7.75;5.53;;;13.10;79.80;;;;;;5012107;28;20022;-77
2022/11/20 09:37:48;;;;;;;7.90;5.38;;;13.10;80.00;;;;;;4996212;28;20109;-77
2022/11/20 09:40:19;;;;;;;7.90;5.47;;;13.10;79.90;;;;;;4996222;28;20483;-76
2022/11/20 09:43:05;;;;;;;8.23;5.95;;;13.10;80.00;;;;;;4980283;28;20490;-79
2022/11/20 09:45:41;;;;;;;8.40;5.90;;;13.10;79.80;;;;;;4979064;28;20081;-77
2022/11/20 09:48:20;;;;;;;8.30;5.78;;;13.20;80.00;;;;;;5005625;28;20025;-79
2022/11/20 09:50:59;;;;;;;8.35;5.45;;;13.20;80.90;;;;;;4997097;28;20022;-77
2022/11/20 09:53:31;;;;;;;8.98;6.00;;;13.20;80.20;;;;;;5009406;28;20429;-78
2022/11/20 09:55:57;;;;;;;7.13;5.15;;;13.20;79.70;;;;;;4988584;28;20565;-75
2022/11/20 09:58:38;;;;;;;7.85;5.55;;;13.30;80.00;;;;;;4995443;28;20502;-79
2022/11/20 10:01:14;;;;;;;8.02;5.55;;;13.30;80.10;;;;;;5010452;28;20033;-79
2022/11/20 10:03:57;;;;;;;7.90;5.13;;;13.40;80.20;;;;;;4995650;28;20033;-79
2022/11/20 10:06:31;;;;;;;6.82;4.82;;;13.40;79.50;;;;;;4997659;28;20109;-75
2022/11/20 10:09:12;;;;;;;7.80;5.47;;;13.50;79.90;;;;;;4977712;28;20023;-75
2022/11/20 10:11:48;;;;;;;;;;;13.60;79.10;;;;;;5002171;28;20036;-75
2022/11/20 10:14:29;;;;;;;7.32;5.22;;;13.70;78.70;;;;;;4981750;28;20381;-81
2022/11/20 10:17:38;;;;;;;7.90;5.25;;;13.70;78.30;;;;;;4982129;28;20045;-79
2022/11/20 10:20:26;;;;;;;9.35;6.00;;;13.70;78.10;;;;;;5000310;28;20029;-80
2022/11/20 10:23:11;;;;;;;8.82;5.38;;;13.70;78.30;;;;;;4980521;28;20030;-79
2022/11/20 10:25:56;;;;;;;8.68;6.15;;;13.70;76.50;;;;;;4978819;28;20057;-79
2022/11/20 10:28:33;;;;;;;9.15;5.97;;;13.70;76.10;;;;;;4996907;28;20038;-80
2022/11/20 10:31:11;;;;;;;9.40;6.22;;;13.80;76.20;;;;;;4996212;28;20054;-80
2022/11/20 10:33:41;;;;;;;8.60;6.05;;;13.80;77.20;;;;;;4979286;28;20023;-79
2022/11/20 10:36:23;;;;;;;8.50;6.03;;;13.90;76.90;;;;;;4996597;28;20026;-79
2022/11/20 10:39:14;;;;;;;8.77;6.13;;;13.90;76.80;;;;;;4978642;28;20034;-78
2022/11/20 10:41:41;;;;;;;10.48;5.70;;;13.80;77.00;;;;;;4978558;28;20030;-79
2022/11/20 10:47:01;;;;;;;7.50;5.35;;;13.90;77.20;;;;;;4996774;28;20037;-78
2022/11/20 10:49:26;;;;;;;7.68;5.30;;;13.80;77.50;;;;;;4977486;28;20018;-79
2022/11/20 10:52:22;;;;;;;7.40;5.10;;;13.90;77.40;;;;;;4977260;28;20118;-76
2022/11/20 10:55:02;;;;;;;8.18;5.68;;;13.90;77.50;;;;;;4981919;28;20069;-78
2022/11/20 10:58:08;;;;;;;8.27;5.18;;;14.00;77.50;;;;;;4996862;28;20375;-80
2022/11/20 11:00:34;;;;;;;8.55;5.60;;;14.00;76.80;;;;;;4979054;28;20030;-80
2022/11/20 11:03:02;;;;;;;8.10;5.43;;;14.00;76.70;;;;;;4977846;28;20022;-78
2022/11/20 11:05:41;;;;;;;7.40;5.25;;;14.10;76.50;;;;;;4995366;28;20029;-77
2022/11/20 11:08:16;;;;;;;13.13;7.43;;;14.20;76.40;;;;;;4996076;28;20027;-78
2022/11/20 11:10:45;;;;;;;15.13;9.35;;;14.00;67.80;;;;;;4988505;28;20094;-77
2022/11/20 11:13:39;;;;;;;13.75;9.25;;;13.80;59.70;;;;;;5016142;28;20026;-79
2022/11/20 11:16:05;;;;;;;11.20;8.27;;;13.50;59.20;;;;;;4997937;28;20052;-78
2022/11/20 11:18:34;;;;;;;12.80;9.73;;;13.50;58.60;;;;;;4997263;28;20026;-77
2022/11/20 11:21:03;;;;;;;12.75;9.00;;;13.50;58.30;;;;;;4991930;28;20510;-79
2022/11/20 11:23:37;;;;;;;12.50;8.65;;;13.40;57.80;;;;;;4978042;28;20030;-79
2022/11/20 11:26:06;;;;;;;12.38;9.00;;;13.20;54.20;;;;;;4978516;28;20030;-77
2022/11/20 11:28:32;;;;;;;11.43;8.88;;;13.00;52.20;;;;;;4977387;28;20030;-80
2022/11/20 11:30:58;;;;;;;11.48;8.40;;;12.80;52.20;;;;;;4996833;28;20025;-78
2022/11/20 11:33:33;;;;;;;13.57;8.50;;;12.90;53.20;;;;;;4981463;28;20041;-77
2022/11/20 11:36:15;;;;;;;13.02;7.57;;;12.80;53.00;;;;;;4976433;28;20026;-79
2022/11/20 11:38:45;;;;;;;10.02;7.60;;;12.70;51.40;;;;;;4994581;28;20030;-77
2022/11/20 11:41:20;;;;;;;10.32;7.63;;;12.50;51.10;;;;;;4993694;28;20033;-79
2022/11/20 11:46:53;;;;;;;11.82;7.70;;;12.30;50.80;;;;;;4994291;28;20712;-78
2022/11/20 11:49:19;;;;;;;10.02;7.28;;;12.30;50.70;;;;;;4976720;28;20207;-77
2022/11/20 11:52:13;;;;;;;10.60;7.80;;;12.20;50.30;;;;;;4976315;28;20049;-77
2022/11/20 11:54:53;;;;;;;11.23;7.35;;;12.10;50.10;;;;;;4976706;28;20486;-77
2022/11/20 11:57:40;;;;;;;10.35;7.97;;;12.00;50.10;;;;;;4976371;28;20030;-77
2022/11/20 12:00:11;;;;;;;12.65;7.93;;;11.90;50.00;;;;;;4975805;28;20022;-75
2022/11/20 12:02:48;;;;;;;11.88;8.18;;;11.90;49.70;;;;;;4993496;28;20034;-76
2022/11/20 12:05:30;;;;;;;11.23;7.60;;;11.80;49.70;;;;;;4976098;28;20418;-76
2022/11/20 12:08:26;;;;;;;10.85;7.60;;;11.80;49.70;;;;;;4976260;28;20022;-73
2022/11/20 12:11:31;;;;;;;9.93;7.15;;;11.80;49.70;;;;;;4993315;28;20045;-75
2022/11/20 12:14:04;;;;;;;10.85;7.55;;;11.80;49.70;;;;;;4993609;28;20109;-71
2022/11/20 12:16:35;;;;;;;12.43;7.50;;;11.70;49.70;;;;;;5001599;28;20525;-75
2022/11/20 12:19:00;;;;;;;11.18;6.93;;;11.60;49.70;;;;;;5010132;28;20034;-74
2022/11/20 12:22:02;;;;;;;10.60;7.80;;;11.70;50.20;;;;;;5000195;28;20037;-74
2022/11/20 12:24:52;;;;;;;10.13;7.18;;;11.80;51.60;;;;;;5000567;28;20038;-71
2022/11/20 12:27:41;;;;;;;10.07;7.15;;;11.90;52.70;;;;;;4995287;28;20018;-74
2022/11/20 12:30:16;;;;;;;9.15;7.05;;;12.10;53.60;;;;;;4995245;28;20026;-74
2022/11/20 12:33:12;;;;;;;11.23;7.32;;;12.20;54.40;;;;;;5012539;28;20101;-74
2022/11/20 12:35:56;;;;;;;9.98;7.53;;;12.30;55.00;;;;;;4997852;28;20398;-79
2022/11/20 12:38:52;;;;;;;10.57;7.53;;;12.30;55.50;;;;;;5020967;28;20033;-79
2022/11/20 12:47:51;;;;;;;10.45;7.32;;;12.40;56.90;;;;;;4993517;28;20115;-78
2022/11/20 12:50:52;;;;;;;12.52;7.45;;;12.40;57.10;;;;;;4997325;28;20079;-75
2022/11/20 12:54:02;;;;;;;10.63;6.78;;;12.40;57.50;;;;;;4995060;28;20026;-76
2022/11/20 12:56:43;;;;;;;10.13;7.20;;;12.40;57.50;;;;;;5010656;28;20570;-76
2022/11/20 12:59:36;;;;;;;10.55;6.85;;;12.50;57.90;;;;;;4992953;28;20506;-76
2022/11/20 13:02:09;;;;;;;9.60;7.20;;;12.50;58.10;;;;;;4975302;28;20027;-75
2022/11/20 13:05:11;;;;;;;10.15;7.03;;;12.50;58.10;;;;;;4992893;28;20035;-75
2022/11/20 13:07:37;;;;;;;10.27;7.43;;;12.50;58.20;;;;;;4992967;28;20053;-77
2022/11/20 13:10:05;;;;;;;10.00;7.53;;;12.50;58.20;;;;;;5005626;28;20014;-76
2022/11/20 13:12:42;;;;;;;9.05;6.68;;;12.50;58.40;;;;;;5009141;28;20038;-76
2022/11/20 13:15:23;;;;;;;8.40;6.45;;;12.50;58.40;;;;;;5003354;28;20449;-75
2022/11/20 13:17:57;;;;;;;10.60;7.27;;;12.50;58.50;;;;;;5009653;28;20026;-74